KPPA/PPA METAR and TAF weather

Enter ICAO airport designator
Station Type Date Time Source
KPPA METAR 2021/08/05 03:35 UTC NOAA

KPPA 050335Z AUTO 27008KT 10SM BKN110 21/16 A3022 RMK AO2 T02070156


Station Type Date Time Source
KPPA Decoded METAR 2021/08/05 03:35 UTC NOAA

Pampa, Perry Lefors Field Airport, TX, United States (KPPA) 35-36-46N 100-59-46W
Aug 04, 2021 - 11:35 PM EDT / 2021.08.05 0335 UTC
Wind: from the W (270 degrees) at 9 MPH (8 KT):0
Visibility: 10 mile(s):0
Sky conditions: mostly cloudy
Temperature: 69.3 F (20.7 C)
Dew Point: 60.1 F (15.6 C)
Relative Humidity: 72%
Pressure (altimeter): 30.22 in. Hg (1023 hPa)
ob: KPPA 050335Z AUTO 27008KT 10SM BKN110 21/16 A3022 RMK AO2 T02070156
cycle: 3

Station Type Date Time Source
KPPA TAF UTC NOAA

Error!

Example: see airport list